Time,TemperatureF,DewpointF,PressureIn,WindDirection,WindDirectionDegrees,WindSpeedMPH,WindSpeedGustMPH,Humidity,HourlyPrecipIn,Conditions,Clouds,dailyrainin,SoftwareType,DateUTC
2013-03-19 00:00:00,27.0,2.0,-100.00,North,-999,-999.0,-999.0,33,-99.99,,,0.00,,2013-03-19 07:00:00,
2013-03-19 00:52:00,27.0,2.0,-100.00,North,-999,-999.0,-999.0,33,-99.99,,,0.00,,2013-03-19 07:52:00,
2013-03-19 01:00:00,28.0,-6.0,-100.00,NNW,343,1.0,4.0,21,-99.99,,,-99.99,,2013-03-19 08:00:00,
2013-03-19 02:00:00,29.0,-14.0,-100.00,East,88,1.0,2.0,14,-99.99,,,-99.99,,2013-03-19 09:00:00,
2013-03-19 03:00:00,27.0,-13.0,-100.00,ESE,107,1.0,2.0,16,-99.99,,,0.00,,2013-03-19 10:00:00,
2013-03-19 04:00:00,26.0,-11.0,-100.00,SE,124,1.0,3.0,19,-99.99,,,-99.99,,2013-03-19 11:00:00,
2013-03-19 05:00:00,27.0,-3.0,-100.00,ESE,113,3.0,4.0,27,-99.99,,,0.00,,2013-03-19 12:00:00,
2013-03-19 06:00:00,26.0,4.0,-100.00,ESE,103,3.0,4.0,37,-99.99,,,-99.99,,2013-03-19 13:00:00,
2013-03-19 07:00:00,25.0,6.0,-100.00,ESE,114,3.0,6.0,44,-99.99,,,0.00,,2013-03-19 14:00:00,
2013-03-19 08:00:00,25.0,12.0,-100.00,ESE,117,3.0,5.0,57,-99.99,,,0.00,,2013-03-19 15:00:00,
2013-03-19 09:00:00,27.0,14.0,-100.00,East,101,3.0,4.0,57,-99.99,,,-99.99,,2013-03-19 16:00:00,
2013-03-19 10:00:00,30.0,14.0,-100.00,ESE,116,2.0,4.0,51,-99.99,,,0.00,,2013-03-19 17:00:00,
2013-03-19 11:00:00,31.0,13.0,-100.00,NNE,12,1.0,3.0,46,-99.99,,,0.01,,2013-03-19 18:00:00,
2013-03-19 12:00:00,34.0,17.0,-100.00,North,5,1.0,4.0,51,-99.99,,,-99.99,,2013-03-19 19:00:00,
2013-03-19 13:00:00,34.0,13.0,-100.00,WSW,255,2.0,3.0,42,-99.99,,,-99.99,,2013-03-19 20:00:00,
2013-03-19 13:53:00,34.0,13.0,-100.00,WSW,255,2.0,3.0,42,-99.99,,,-99.99,,2013-03-19 20:53:00,
2013-03-19 14:00:00,31.0,13.0,-100.00,NNW,332,1.0,3.0,46,-99.99,,,0.01,,2013-03-19 21:00:00,
2013-03-19 15:00:00,31.0,15.0,-100.00,NE,36,2.0,4.0,51,-99.99,,,0.00,,2013-03-19 22:00:00,
2013-03-19 15:43:00,31.0,15.0,-100.00,NE,36,2.0,4.0,51,-99.99,,,0.00,,2013-03-19 22:43:00,
2013-03-19 15:53:00,31.0,15.0,-100.00,NE,36,2.0,4.0,51,-99.99,,,0.00,,2013-03-19 22:53:00,
2013-03-19 16:00:00,30.0,9.0,-100.00,NE,53,1.0,3.0,40,-99.99,,,-99.99,,2013-03-19 23:00:00,
2013-03-19 16:43:00,30.0,9.0,-100.00,NE,53,1.0,3.0,40,-99.99,,,-99.99,,2013-03-19 23:43:00,
2013-03-19 16:52:00,30.0,9.0,-100.00,NE,53,1.0,3.0,40,-99.99,,,-99.99,,2013-03-19 23:52:00,
2013-03-19 17:00:00,29.0,18.0,-100.00,East,101,1.0,3.0,65,-99.99,,,-99.99,,2013-03-20 00:00:00,
2013-03-19 17:42:00,29.0,18.0,-100.00,East,101,1.0,3.0,65,-99.99,,,-99.99,,2013-03-20 00:42:00,
2013-03-19 17:52:00,29.0,18.0,-100.00,East,101,1.0,3.0,65,-99.99,,,-99.99,,2013-03-20 00:52:00,
2013-03-19 18:00:00,27.0,24.0,-100.00,North,-999,-999.0,-999.0,88,-99.99,,,0.00,,2013-03-20 01:00:00,
2013-03-19 18:52:00,27.0,24.0,-100.00,North,-999,-999.0,-999.0,88,-99.99,,,0.00,,2013-03-20 01:52:00,
2013-03-19 19:00:00,27.0,25.0,-100.00,NW,312,1.0,2.0,94,-99.99,,,0.00,,2013-03-20 02:00:00,
2013-03-19 20:00:00,27.0,26.0,-100.00,ESE,116,1.0,3.0,96,-99.99,,,0.01,,2013-03-20 03:00:00,
2013-03-19 21:00:00,29.0,28.0,-100.00,ESE,119,2.0,5.0,97,-99.99,,,0.01,,2013-03-20 04:00:00,
2013-03-19 22:00:00,30.0,30.0,-100.00,ESE,111,3.0,5.0,99,-99.99,,,-99.99,,2013-03-20 05:00:00,
2013-03-19 23:00:00,30.0,30.0,-100.00,SE,140,3.0,5.0,99,-99.99,,,0.02,,2013-03-20 06:00:00,